createdAt,value
2018-05-03T00:02:27.228Z,5.40
2018-05-03T00:04:54.736Z,5.63
2018-05-03T00:07:23.024Z,6.93
2018-05-03T00:09:50.575Z,6.37
2018-05-03T00:12:18.130Z,6.97
2018-05-03T00:14:45.637Z,8.20
2018-05-03T00:17:13.197Z,8.87
2018-05-03T00:19:40.758Z,9.13
2018-05-03T00:22:08.285Z,8.13
2018-05-03T00:24:35.830Z,9.50
2018-05-03T00:27:03.350Z,10.43
2018-05-03T00:29:30.879Z,9.63
2018-05-03T00:31:58.418Z,10.07
2018-05-03T00:34:25.958Z,7.90
2018-05-03T00:36:53.490Z,10.03
2018-05-03T00:39:21.083Z,10.10
2018-05-03T00:41:48.644Z,10.90
2018-05-03T00:44:16.164Z,10.67
2018-05-03T00:46:43.740Z,11.20
2018-05-03T00:49:11.766Z,10.83
2018-05-03T00:51:40.032Z,8.80
2018-05-03T00:54:08.314Z,11.40
2018-05-03T00:56:36.674Z,11.03
2018-05-03T00:59:04.198Z,10.13
2018-05-03T01:01:31.714Z,11.80
2018-05-03T01:03:59.274Z,11.43
2018-05-03T01:06:27.650Z,11.60
2018-05-03T01:08:55.926Z,11.40
2018-05-03T01:11:24.236Z,11.37
2018-05-03T01:13:51.812Z,10.93
2018-05-03T01:16:19.330Z,11.60
2018-05-03T01:18:47.618Z,10.93
2018-05-03T01:21:15.147Z,10.67
2018-05-03T01:23:42.675Z,10.30
2018-05-03T01:26:10.195Z,10.27
2018-05-03T01:28:38.536Z,9.70
2018-05-03T01:31:06.069Z,9.63
2018-05-03T01:33:33.612Z,10.10
2018-05-03T01:36:12.935Z,9.67
2018-05-03T01:38:40.463Z,9.50
2018-05-03T01:41:07.979Z,9.13
2018-05-03T01:43:35.533Z,8.67
2018-05-03T01:46:03.095Z,9.90
2018-05-03T01:48:30.622Z,9.43
2018-05-03T01:50:58.180Z,9.73
2018-05-03T01:53:25.681Z,8.87
2018-05-03T01:55:53.187Z,9.23
2018-05-03T01:58:20.714Z,8.87
2018-05-03T02:00:48.206Z,8.67
2018-05-03T02:03:15.709Z,9.13
2018-05-03T02:05:43.250Z,8.67
2018-05-03T02:08:11.535Z,8.67
2018-05-03T02:10:39.879Z,9.77
2018-05-03T02:13:07.415Z,8.60
2018-05-03T02:15:34.964Z,8.73
2018-05-03T02:18:02.491Z,9.20
2018-05-03T02:20:30.015Z,8.63
2018-05-03T02:22:57.556Z,9.33
2018-05-03T02:25:25.093Z,8.53
2018-05-03T02:27:52.612Z,8.97
2018-05-03T02:30:20.115Z,9.10
2018-05-03T02:32:47.658Z,9.20
2018-05-03T02:35:15.184Z,9.23
2018-05-03T02:37:42.715Z,9.17
2018-05-03T02:40:10.247Z,9.27
2018-05-03T02:42:37.767Z,9.27
2018-05-03T02:45:05.307Z,9.43
2018-05-03T02:47:32.874Z,9.83
2018-05-03T02:50:00.405Z,8.90
2018-05-03T02:52:27.927Z,8.80
2018-05-03T02:54:55.480Z,9.40
2018-05-03T02:57:34.831Z,9.50
2018-05-03T03:03:34.709Z,8.40
2018-05-03T03:06:13.953Z,9.07
2018-05-03T03:09:11.917Z,8.63
2018-05-03T03:11:54.707Z,8.70
2018-05-03T03:14:39.575Z,9.27
2018-05-03T03:17:25.358Z,8.80
2018-05-03T03:20:11.101Z,9.20
2018-05-03T03:22:56.283Z,8.77
2018-05-03T03:28:56.846Z,9.60
2018-05-03T03:31:41.790Z,9.60
2018-05-03T03:34:25.021Z,9.10
2018-05-03T03:37:26.147Z,9.23
2018-05-03T03:40:11.107Z,8.27
2018-05-03T03:45:45.884Z,9.73
2018-05-03T03:48:13.392Z,9.00
2018-05-03T03:50:40.933Z,8.87
2018-05-03T03:53:08.549Z,9.33
2018-05-03T03:55:36.024Z,8.80
2018-05-03T03:58:03.546Z,8.83
2018-05-03T04:00:31.074Z,8.67
2018-05-03T04:02:58.598Z,9.70
2018-05-03T04:05:26.102Z,8.87
2018-05-03T04:07:53.655Z,8.70
2018-05-03T04:10:21.157Z,9.27
2018-05-03T04:12:48.687Z,9.40
2018-05-03T04:15:16.225Z,9.50
2018-05-03T04:17:55.476Z,8.87
2018-05-03T04:20:39.706Z,9.17
2018-05-03T04:23:30.926Z,9.53
2018-05-03T04:26:02.971Z,9.60
2018-05-03T04:28:30.480Z,9.60
2018-05-03T04:30:58.022Z,9.30
2018-05-03T04:33:25.549Z,9.20
2018-05-03T04:35:53.074Z,9.50
2018-05-03T04:38:20.643Z,9.00
2018-05-03T04:40:48.166Z,9.50
2018-05-03T04:43:15.687Z,9.60
2018-05-03T04:45:43.195Z,9.23
2018-05-03T04:48:10.718Z,9.10
2018-05-03T04:50:38.243Z,8.80
2018-05-03T04:53:05.732Z,9.43
2018-05-03T04:55:33.267Z,9.40
2018-05-03T04:58:01.547Z,9.00
2018-05-03T05:00:29.065Z,8.83
2018-05-03T05:02:56.594Z,8.97
2018-05-03T05:05:24.111Z,8.90
2018-05-03T05:07:51.639Z,8.60
2018-05-03T05:10:19.187Z,8.77
2018-05-03T05:12:46.688Z,8.97
2018-05-03T05:15:14.995Z,8.90
2018-05-03T05:17:42.542Z,9.73
2018-05-03T05:20:10.814Z,9.53
2018-05-03T05:22:38.331Z,9.73
2018-05-03T05:25:05.873Z,9.20
2018-05-03T05:27:33.431Z,9.27
2018-05-03T05:30:00.937Z,9.70
2018-05-03T05:32:28.482Z,9.73
2018-05-03T05:34:56.007Z,9.80
2018-05-03T05:37:24.250Z,10.63
2018-05-03T05:39:52.696Z,9.97
2018-05-03T05:42:20.224Z,9.23
2018-05-03T05:44:48.503Z,11.13
2018-05-03T05:47:16.064Z,10.87
2018-05-03T05:49:43.625Z,11.07
2018-05-03T05:52:11.130Z,10.00
2018-05-03T05:54:38.653Z,10.67
2018-05-03T05:57:06.175Z,10.60
2018-05-03T05:59:34.483Z,9.97
2018-05-03T06:02:02.095Z,9.93
2018-05-03T06:04:29.605Z,9.47
2018-05-03T06:06:57.131Z,8.03
2018-05-03T06:09:24.674Z,6.97
2018-05-03T06:11:52.235Z,8.63
2018-05-03T06:14:19.750Z,7.33
2018-05-03T06:16:47.301Z,5.43
2018-05-03T06:19:14.953Z,7.10
2018-05-03T06:21:42.490Z,7.10
2018-05-03T06:24:10.043Z,6.97
2018-05-03T06:26:37.555Z,6.43
2018-05-03T06:29:05.073Z,6.07
2018-05-03T06:31:33.375Z,4.57
2018-05-03T06:34:00.894Z,4.93
2018-05-03T06:36:28.436Z,5.30
2018-05-03T06:38:55.950Z,5.30
2018-05-03T06:41:23.489Z,4.67
2018-05-03T06:43:51.091Z,4.20
2018-05-03T06:46:18.669Z,4.87
2018-05-03T06:48:46.194Z,4.73
2018-05-03T06:51:14.651Z,5.13
2018-05-03T06:53:42.783Z,5.17
2018-05-03T06:56:10.328Z,4.93
2018-05-03T06:58:37.892Z,4.10
2018-05-03T07:01:05.405Z,5.03
2018-05-03T07:03:33.014Z,4.23
2018-05-03T07:06:00.556Z,5.50
2018-05-03T07:08:28.095Z,5.23
2018-05-03T07:10:55.639Z,4.40
2018-05-03T07:13:23.152Z,4.40
2018-05-03T07:15:50.682Z,4.67
2018-05-03T07:18:18.949Z,3.07
2018-05-03T07:20:47.227Z,4.30
2018-05-03T07:23:14.784Z,3.33
2018-05-03T07:25:42.301Z,3.43
2018-05-03T07:28:09.821Z,3.03
2018-05-03T07:30:38.259Z,3.20
2018-05-03T07:33:05.835Z,3.60
2018-05-03T07:35:33.336Z,3.33
2018-05-03T07:38:00.841Z,3.33
2018-05-03T07:40:28.367Z,3.47
2018-05-03T07:42:55.874Z,3.07
2018-05-03T07:45:23.406Z,3.77
2018-05-03T07:47:50.962Z,3.77
2018-05-03T07:50:18.627Z,3.50
2018-05-03T07:52:46.196Z,3.00
2018-05-03T07:55:13.750Z,3.13
2018-05-03T07:57:41.322Z,3.37
2018-05-03T08:00:08.885Z,2.07
2018-05-03T08:02:36.400Z,2.30
2018-05-03T08:05:04.712Z,2.67
2018-05-03T08:07:32.209Z,2.57
2018-05-03T08:10:00.604Z,3.30
2018-05-03T08:12:28.230Z,3.00
2018-05-03T08:14:55.729Z,3.10
2018-05-03T08:17:23.267Z,3.00
2018-05-03T08:19:50.927Z,2.90
2018-05-03T08:22:18.441Z,2.10
2018-05-03T08:24:45.959Z,2.30
2018-05-03T08:27:13.503Z,2.30
2018-05-03T08:29:40.998Z,2.20
2018-05-03T08:32:09.265Z,2.40
2018-05-03T08:34:38.493Z,2.73
2018-05-03T08:37:06.017Z,2.60
2018-05-03T08:39:33.542Z,2.70
2018-05-03T08:42:01.073Z,2.60
2018-05-03T08:44:28.623Z,2.43
2018-05-03T08:46:56.914Z,2.10
2018-05-03T08:49:25.126Z,2.30
2018-05-03T08:51:52.646Z,2.00
2018-05-03T08:54:20.169Z,2.60
2018-05-03T08:56:47.702Z,2.60
2018-05-03T08:59:15.206Z,2.20
2018-05-03T09:01:42.735Z,2.33
2018-05-03T09:04:10.338Z,2.40
2018-05-03T09:06:37.873Z,2.50
2018-05-03T09:09:05.387Z,2.37
2018-05-03T09:11:32.945Z,2.50
2018-05-03T09:14:00.470Z,2.30
2018-05-03T09:16:28.018Z,2.53
2018-05-03T09:18:55.546Z,2.40
2018-05-03T09:21:23.084Z,1.63
2018-05-03T09:23:50.648Z,2.60
2018-05-03T09:26:18.180Z,2.87
2018-05-03T09:28:45.715Z,2.37
2018-05-03T09:31:13.339Z,2.70
2018-05-03T09:33:40.869Z,2.60
2018-05-03T09:36:08.382Z,2.87
2018-05-03T09:38:35.929Z,2.60
2018-05-03T09:41:03.442Z,2.70
2018-05-03T09:43:30.949Z,2.43
2018-05-03T09:45:58.473Z,2.50
2018-05-03T09:48:25.985Z,3.00
2018-05-03T09:50:53.513Z,2.20
2018-05-03T09:53:21.099Z,2.30
2018-05-03T09:55:49.398Z,2.00
2018-05-03T09:58:16.936Z,2.03
2018-05-03T10:00:44.519Z,2.00
2018-05-03T10:03:12.053Z,2.57
2018-05-03T10:05:39.594Z,2.20
2018-05-03T10:08:08.301Z,2.47
2018-05-03T10:10:36.430Z,2.77
2018-05-03T10:13:03.968Z,2.53
2018-05-03T10:15:31.501Z,2.70
2018-05-03T10:17:59.020Z,2.30
2018-05-03T10:20:27.327Z,2.70
2018-05-03T10:22:54.889Z,2.30
2018-05-03T10:25:22.427Z,2.70
2018-05-03T10:27:50.777Z,2.00
2018-05-03T10:30:19.133Z,2.20
2018-05-03T10:32:46.635Z,2.40
2018-05-03T10:35:15.197Z,1.97
2018-05-03T10:37:43.368Z,2.40
2018-05-03T10:40:10.946Z,2.60
2018-05-03T10:42:38.996Z,2.50
2018-05-03T10:45:06.520Z,1.87
2018-05-03T10:47:35.948Z,2.10
2018-05-03T10:50:04.474Z,1.97
2018-05-03T10:52:42.603Z,2.10
2018-05-03T10:55:13.887Z,1.60
2018-05-03T10:57:41.588Z,1.77
2018-05-03T11:00:10.069Z,1.70
2018-05-03T11:02:38.474Z,1.90
2018-05-03T11:05:05.989Z,2.00
2018-05-03T11:07:33.535Z,1.77
2018-05-03T11:10:01.065Z,1.50
2018-05-03T11:12:28.572Z,2.10
2018-05-03T11:14:56.178Z,2.07
2018-05-03T11:17:23.766Z,1.90
2018-05-03T11:19:51.296Z,1.73
2018-05-03T11:22:18.868Z,1.80
2018-05-03T11:24:46.450Z,1.53
2018-05-03T11:27:14.190Z,1.60
2018-05-03T11:29:44.022Z,1.30
2018-05-03T11:32:11.627Z,1.70
2018-05-03T11:34:39.156Z,1.70
2018-05-03T11:37:06.686Z,1.80
2018-05-03T11:39:34.262Z,1.80
2018-05-03T11:42:01.824Z,1.70
2018-05-03T11:44:29.371Z,1.73
2018-05-03T11:46:57.005Z,2.10
2018-05-03T11:49:25.363Z,2.17
2018-05-03T11:51:52.868Z,2.13
2018-05-03T11:54:20.382Z,2.23
2018-05-03T11:56:48.664Z,2.90
2018-05-03T11:59:16.257Z,2.60
2018-05-03T12:01:43.691Z,1.90
2018-05-03T12:04:11.227Z,2.37
2018-05-03T12:06:38.755Z,1.63
2018-05-03T12:09:06.292Z,2.70
2018-05-03T12:11:33.867Z,2.40
2018-05-03T12:14:01.753Z,2.00
2018-05-03T12:16:29.394Z,2.33
2018-05-03T12:18:56.926Z,1.90
2018-05-03T12:21:25.075Z,2.50
2018-05-03T12:23:52.640Z,2.20
2018-05-03T12:26:20.167Z,2.40
2018-05-03T12:28:47.905Z,2.30
2018-05-03T12:31:15.412Z,2.23
2018-05-03T12:33:42.978Z,2.33
2018-05-03T12:36:10.594Z,1.97
2018-05-03T12:38:38.996Z,2.70
2018-05-03T12:41:06.643Z,1.90
2018-05-03T12:43:34.284Z,2.50
2018-05-03T12:46:02.714Z,1.77
2018-05-03T12:48:31.070Z,2.40
2018-05-03T12:50:58.720Z,2.10
2018-05-03T12:53:27.315Z,3.10
2018-05-03T12:55:54.928Z,2.30
2018-05-03T12:58:22.505Z,2.73
2018-05-03T13:00:50.126Z,1.60
2018-05-03T13:03:17.655Z,1.83
2018-05-03T13:05:46.046Z,2.50
2018-05-03T13:08:13.649Z,2.97
2018-05-03T13:10:41.331Z,2.97
2018-05-03T13:13:08.945Z,2.00
2018-05-03T13:15:36.533Z,2.90
2018-05-03T13:18:04.143Z,2.80
2018-05-03T13:20:31.871Z,2.00
2018-05-03T13:23:00.255Z,3.07
2018-05-03T13:25:27.967Z,3.03
2018-05-03T13:27:55.705Z,2.90
2018-05-03T13:30:23.462Z,3.00
2018-05-03T13:32:51.048Z,3.00
2018-05-03T13:35:18.659Z,2.73
2018-05-03T13:37:46.182Z,2.97
2018-05-03T13:40:13.679Z,2.80
2018-05-03T13:42:41.186Z,2.00
2018-05-03T13:45:08.731Z,2.67
2018-05-03T13:47:36.268Z,2.27
2018-05-03T13:50:03.830Z,3.00
2018-05-03T13:52:31.386Z,2.23
2018-05-03T13:54:58.920Z,2.27
2018-05-03T13:57:26.545Z,2.80
2018-05-03T13:59:55.425Z,2.20
2018-05-03T14:02:22.937Z,2.90
2018-05-03T14:04:50.478Z,2.70
2018-05-03T14:07:18.049Z,2.43
2018-05-03T14:09:46.337Z,2.97
2018-05-03T14:12:13.884Z,2.90
2018-05-03T14:14:41.402Z,2.33
2018-05-03T14:17:09.038Z,2.73
2018-05-03T14:19:36.593Z,3.00
2018-05-03T14:22:04.130Z,3.20
2018-05-03T14:24:31.685Z,2.63
2018-05-03T14:26:59.199Z,2.70
2018-05-03T14:29:26.716Z,2.47
2018-05-03T14:31:54.266Z,2.67
2018-05-03T14:34:21.809Z,2.30
2018-05-03T14:36:49.332Z,3.00
2018-05-03T14:39:16.857Z,2.73
2018-05-03T14:41:44.364Z,2.80
2018-05-03T14:44:11.908Z,2.50
2018-05-03T14:46:39.421Z,2.33
2018-05-03T14:49:07.693Z,2.40
2018-05-03T14:51:36.048Z,2.50
2018-05-03T14:54:03.591Z,2.70
2018-05-03T14:56:31.125Z,2.70
2018-05-03T14:58:58.658Z,2.60
2018-05-03T15:01:26.946Z,2.13
2018-05-03T15:03:54.468Z,2.50
2018-05-03T15:06:22.006Z,2.50
2018-05-03T15:08:49.550Z,2.23
2018-05-03T15:11:17.064Z,2.40
2018-05-03T15:13:44.633Z,2.50
2018-05-03T15:16:13.009Z,2.20
2018-05-03T15:18:41.090Z,2.67
2018-05-03T15:21:09.393Z,2.07
2018-05-03T15:23:36.936Z,2.20
2018-05-03T15:26:05.234Z,2.03
2018-05-03T15:28:32.760Z,2.67
2018-05-03T15:31:01.055Z,2.70
2018-05-03T15:33:28.569Z,2.60
2018-05-03T15:35:56.114Z,2.57
2018-05-03T15:38:23.674Z,2.80
2018-05-03T15:40:51.186Z,2.33
2018-05-03T15:43:18.723Z,2.60
2018-05-03T15:45:46.233Z,2.70
2018-05-03T15:48:13.815Z,2.17
2018-05-03T15:50:41.351Z,2.67
2018-05-03T15:53:08.875Z,2.60
2018-05-03T15:55:37.218Z,2.20
2018-05-03T15:58:04.782Z,2.40
2018-05-03T16:00:32.326Z,2.10
2018-05-03T16:02:59.850Z,2.40
2018-05-03T16:05:28.222Z,2.50
2018-05-03T16:07:55.829Z,2.30
2018-05-03T16:10:23.329Z,2.30
2018-05-03T16:12:52.447Z,2.53
2018-05-03T16:15:19.956Z,2.50
2018-05-03T16:17:47.585Z,2.00
2018-05-03T16:20:15.396Z,2.43
2018-05-03T16:22:42.973Z,2.10
2018-05-03T16:25:10.674Z,2.27
2018-05-03T16:27:38.193Z,2.10
2018-05-03T16:30:05.711Z,2.27
2018-05-03T16:32:34.034Z,2.57
2018-05-03T16:35:01.553Z,2.40
2018-05-03T16:37:29.059Z,2.37
2018-05-03T16:39:56.620Z,2.40
2018-05-03T16:42:24.158Z,2.07
2018-05-03T16:44:51.674Z,2.30
2018-05-03T16:47:20.020Z,2.60
2018-05-03T16:49:47.633Z,2.57
2018-05-03T16:52:15.175Z,2.70
2018-05-03T16:54:42.742Z,3.23
2018-05-03T16:57:10.260Z,2.40
2018-05-03T16:59:37.791Z,2.50
2018-05-03T17:02:05.350Z,2.53
2018-05-03T17:04:32.881Z,2.03
2018-05-03T17:07:01.221Z,2.47
2018-05-03T17:09:28.717Z,2.17
2018-05-03T17:11:56.248Z,2.40
2018-05-03T17:14:23.766Z,2.30
2018-05-03T17:16:51.329Z,2.23
2018-05-03T17:19:18.836Z,2.63
2018-05-03T17:21:47.110Z,2.20
2018-05-03T17:24:14.659Z,2.40
2018-05-03T17:26:42.158Z,2.33
2018-05-03T17:29:09.686Z,2.30
2018-05-03T17:31:37.489Z,2.40
2018-05-03T17:34:05.004Z,2.20
2018-05-03T17:36:32.506Z,2.40
2018-05-03T17:39:00.107Z,2.27
2018-05-03T17:41:28.360Z,2.27
2018-05-03T17:43:55.874Z,2.10
2018-05-03T17:46:23.421Z,2.20
2018-05-03T17:48:51.863Z,2.43
2018-05-03T17:51:19.566Z,2.03
2018-05-03T17:53:47.792Z,2.40
2018-05-03T17:56:15.339Z,2.13
2018-05-03T17:58:43.609Z,2.50
2018-05-03T18:01:11.170Z,2.30
2018-05-03T18:03:39.471Z,2.23
2018-05-03T18:06:06.995Z,2.30
2018-05-03T18:08:34.706Z,2.40
2018-05-03T18:11:02.256Z,2.50
2018-05-03T18:13:29.835Z,2.30
2018-05-03T18:15:57.678Z,2.20
2018-05-03T18:18:25.957Z,2.27
2018-05-03T18:20:53.474Z,2.37
2018-05-03T18:23:23.216Z,2.40
2018-05-03T18:25:50.906Z,2.20
2018-05-03T18:28:18.878Z,2.60
2018-05-03T18:30:46.390Z,2.33
2018-05-03T18:33:13.909Z,2.40
2018-05-03T18:35:41.446Z,2.30
2018-05-03T18:38:08.995Z,2.37
2018-05-03T18:40:36.518Z,2.37
2018-05-03T18:43:04.058Z,2.40
2018-05-03T18:45:31.989Z,2.60
2018-05-03T18:47:59.608Z,2.43
2018-05-03T18:50:27.114Z,2.43
2018-05-03T18:52:55.515Z,2.60
2018-05-03T18:55:23.028Z,2.30
2018-05-03T18:57:50.545Z,2.70
2018-05-03T19:00:18.134Z,2.57
2018-05-03T19:02:45.648Z,2.60
2018-05-03T19:05:13.175Z,2.37
2018-05-03T19:07:40.735Z,2.30
2018-05-03T19:10:08.253Z,2.67
2018-05-03T19:12:35.771Z,2.40
2018-05-03T19:15:03.362Z,2.10
2018-05-03T19:17:30.869Z,2.57
2018-05-03T19:19:58.366Z,2.50
2018-05-03T19:22:25.882Z,2.00
2018-05-03T19:24:53.422Z,2.30
2018-05-03T19:27:20.982Z,2.40
2018-05-03T19:29:48.540Z,2.20
2018-05-03T19:32:16.142Z,2.60
2018-05-03T19:34:43.660Z,2.20
2018-05-03T19:37:11.186Z,2.47
2018-05-03T19:39:38.707Z,2.50
2018-05-03T19:42:06.252Z,2.07
2018-05-03T19:44:33.820Z,2.10
2018-05-03T19:47:01.328Z,2.50
2018-05-03T19:49:28.877Z,2.60
2018-05-03T19:51:57.199Z,2.10
2018-05-03T19:54:24.712Z,2.50
2018-05-03T19:56:53.114Z,2.80
2018-05-03T19:59:20.650Z,2.40
2018-05-03T20:01:48.162Z,2.70
2018-05-03T20:04:15.707Z,2.30
2018-05-03T20:06:43.265Z,2.30
2018-05-03T20:09:11.987Z,2.70
2018-05-03T20:11:39.958Z,2.30
2018-05-03T20:14:07.762Z,2.23
2018-05-03T20:16:35.323Z,2.10
2018-05-03T20:19:03.631Z,2.10
2018-05-03T20:21:31.197Z,2.20
2018-05-03T20:23:58.702Z,2.50
2018-05-03T20:26:27.775Z,2.37
2018-05-03T20:28:55.415Z,2.43
2018-05-03T20:31:22.977Z,2.27
2018-05-03T20:33:50.718Z,2.63
2018-05-03T20:36:18.402Z,2.40
2018-05-03T20:38:45.987Z,2.53
2018-05-03T20:41:13.504Z,2.90
2018-05-03T20:43:41.998Z,2.70
2018-05-03T20:46:09.600Z,3.03
2018-05-03T20:48:37.140Z,2.50
2018-05-03T20:51:04.699Z,2.70
2018-05-03T20:53:32.238Z,2.67
2018-05-03T20:55:59.759Z,2.50
2018-05-03T20:58:27.288Z,2.93
2018-05-03T21:00:54.855Z,2.77
2018-05-03T21:03:22.372Z,2.80
2018-05-03T21:05:49.886Z,3.10
2018-05-03T21:08:17.411Z,2.80
2018-05-03T21:10:45.734Z,2.67
2018-05-03T21:13:13.280Z,2.90
2018-05-03T21:15:40.812Z,2.57
2018-05-03T21:18:08.323Z,2.40
2018-05-03T21:20:35.846Z,2.90
2018-05-03T21:23:03.376Z,2.23
2018-05-03T21:25:31.669Z,2.53
2018-05-03T21:27:59.179Z,2.63
2018-05-03T21:30:26.735Z,2.63
2018-05-03T21:32:54.359Z,2.30
2018-05-03T21:35:21.848Z,2.50
2018-05-03T21:37:49.390Z,2.60
2018-05-03T21:40:16.912Z,2.30
2018-05-03T21:42:44.439Z,2.40
2018-05-03T21:45:11.987Z,2.80
2018-05-03T21:47:39.485Z,2.67
2018-05-03T21:50:07.135Z,2.87
2018-05-03T21:52:34.683Z,2.70
2018-05-03T21:55:02.218Z,2.70
2018-05-03T21:57:29.762Z,2.90
2018-05-03T21:59:57.332Z,2.40
2018-05-03T22:02:24.861Z,2.50
2018-05-03T22:04:53.143Z,2.53
2018-05-03T22:07:20.659Z,2.73
2018-05-03T22:09:48.207Z,2.53
2018-05-03T22:12:15.760Z,2.70
2018-05-03T22:14:43.271Z,2.53
2018-05-03T22:17:10.826Z,2.80
2018-05-03T22:19:38.378Z,2.60
2018-05-03T22:22:05.886Z,2.67
2018-05-03T22:24:33.463Z,2.80
2018-05-03T22:27:01.073Z,3.03
2018-05-03T22:29:28.590Z,2.93
2018-05-03T22:31:56.178Z,3.10
2018-05-03T22:34:23.693Z,2.40
2018-05-03T22:36:51.195Z,2.50
2018-05-03T22:39:18.742Z,2.30
2018-05-03T22:41:46.273Z,2.70
2018-05-03T22:44:13.774Z,2.83
2018-05-03T22:46:41.304Z,2.40
2018-05-03T22:49:08.821Z,2.73
2018-05-03T22:51:36.355Z,2.20
2018-05-03T22:54:03.872Z,2.30
2018-05-03T22:56:31.384Z,2.80
2018-05-03T22:58:58.915Z,2.87
2018-05-03T23:01:26.424Z,2.60
2018-05-03T23:03:54.706Z,3.00
2018-05-03T23:06:23.010Z,2.50
2018-05-03T23:08:50.505Z,2.43
2018-05-03T23:11:18.024Z,2.53
2018-05-03T23:13:46.339Z,2.50
2018-05-03T23:16:13.991Z,2.40
2018-05-03T23:18:41.618Z,2.57
2018-05-03T23:21:09.137Z,2.80
2018-05-03T23:23:36.642Z,2.40
2018-05-03T23:26:04.174Z,2.50
2018-05-03T23:28:32.176Z,2.50
2018-05-03T23:30:59.685Z,2.70
2018-05-03T23:33:27.217Z,2.70
2018-05-03T23:35:54.736Z,2.53
2018-05-03T23:38:23.001Z,2.73
2018-05-03T23:40:50.572Z,2.60
2018-05-03T23:43:18.884Z,2.67
2018-05-03T23:45:46.399Z,2.77
2018-05-03T23:48:14.690Z,2.33
2018-05-03T23:50:42.225Z,2.60
2018-05-03T23:53:09.740Z,2.50
2018-05-03T23:55:37.247Z,2.80
2018-05-03T23:58:04.770Z,2.63
